Time;durP1;ratioP1;P1;durP2;ratioP2;P2;SDS_P1;SDS_P2;PMS_P1;PMS_P2;Temp;Humidity;BMP_temperature;BMP_pressure;BME280_temperature;BME280_humidity;BME280_pressure;Samples;Min_cycle;Max_cycle;Signal;HPM_P1;HPM_P2
2023/05/16 00:03:44;;;;;;;10.10;9.30;;;14.40;99.90;;;;;;10475401;28;20602;-80
2023/05/16 00:08:46;;;;;;;10.70;9.90;;;14.40;99.90;;;;;;10450348;28;20221;-81
2023/05/16 00:13:50;;;;;;;10.03;9.23;;;14.30;99.90;;;;;;10450246;28;20217;-80
2023/05/16 00:18:52;;;;;;;10.03;9.23;;;14.30;99.90;;;;;;10473331;28;20216;-80
2023/05/16 00:23:54;;;;;;;10.53;9.73;;;14.30;99.90;;;;;;10469129;28;20197;-79
2023/05/16 00:28:57;;;;;;;11.30;10.30;;;14.40;99.90;;;;;;10460488;28;20222;-78
2023/05/16 00:33:59;;;;;;;12.23;11.23;;;14.30;99.90;;;;;;10469051;28;20229;-78
2023/05/16 00:39:02;;;;;;;11.67;10.67;;;14.30;99.90;;;;;;10465577;28;20262;-80
2023/05/16 00:44:05;;;;;;;12.03;11.00;;;14.40;99.90;;;;;;10452247;28;20194;-80
2023/05/16 00:49:08;;;;;;;14.27;13.07;;;14.40;99.90;;;;;;10426015;28;20763;-80
2023/05/16 00:54:11;;;;;;;17.23;15.80;;;14.40;99.90;;;;;;10426748;28;20677;-80
2023/05/16 00:59:17;;;;;;;18.20;16.60;;;14.50;99.90;;;;;;10436596;28;20230;-78
2023/05/16 01:04:20;;;;;;;20.10;18.20;;;14.50;99.90;;;;;;10435643;28;20217;-79
2023/05/16 01:09:23;;;;;;;22.80;20.70;;;14.60;99.90;;;;;;10469348;28;20249;-79
2023/05/16 01:14:36;;;;;;;22.37;20.27;;;14.60;99.90;;;;;;10466791;28;20209;-82
2023/05/16 01:20:00;;;;;;;22.67;20.53;;;14.70;99.90;;;;;;10476790;28;20225;-82
2023/05/16 01:25:11;;;;;;;23.33;21.27;;;14.70;99.90;;;;;;10481962;28;20282;-80
2023/05/16 01:30:17;;;;;;;25.40;23.07;;;14.70;99.90;;;;;;10438560;28;20225;-79
2023/05/16 01:35:19;;;;;;;25.97;23.47;;;14.70;99.90;;;;;;10445662;28;20292;-80
2023/05/16 01:40:31;;;;;;;25.73;23.23;;;14.70;99.90;;;;;;10457416;28;20603;-80
2023/05/16 01:45:39;;;;;;;27.67;25.00;;;14.70;99.90;;;;;;10459644;28;20193;-80
2023/05/16 01:50:45;;;;;;;29.80;26.67;;;14.70;99.90;;;;;;10462581;28;20222;-80
2023/05/16 01:55:51;;;;;;;30.73;27.80;;;14.70;99.90;;;;;;10481512;28;20217;-80
2023/05/16 02:00:59;;;;;;;32.67;29.30;;;14.70;99.90;;;;;;10440232;28;20247;-79
2023/05/16 02:06:01;;;;;;;30.77;27.67;;;14.70;99.90;;;;;;10458494;28;20263;-80
2023/05/16 02:11:03;;;;;;;31.97;28.87;;;14.70;99.90;;;;;;10462435;28;20257;-79
2023/05/16 02:16:07;;;;;;;32.57;29.50;;;14.70;99.90;;;;;;10460236;28;20308;-80
2023/05/16 02:21:10;;;;;;;33.53;29.90;;;14.70;99.90;;;;;;10453666;28;20228;-80
2023/05/16 02:26:12;;;;;;;32.57;29.23;;;14.70;99.90;;;;;;10437906;28;20305;-79
2023/05/16 02:31:26;;;;;;;33.33;30.00;;;14.70;99.90;;;;;;10440744;28;20316;-80
2023/05/16 02:36:28;;;;;;;34.63;31.07;;;14.70;99.90;;;;;;10466568;28;20225;-81
2023/05/16 02:41:30;;;;;;;33.10;29.50;;;14.70;99.90;;;;;;10438452;28;20222;-79
2023/05/16 02:46:35;;;;;;;33.63;30.20;;;14.70;99.90;;;;;;10437724;28;20198;-80
2023/05/16 02:51:39;;;;;;;38.20;33.40;;;14.70;99.90;;;;;;10469435;28;20297;-79
2023/05/16 02:56:41;;;;;;;34.47;30.80;;;14.70;99.90;;;;;;10478560;28;20303;-80
2023/05/16 03:01:44;;;;;;;35.60;31.60;;;14.70;99.90;;;;;;10475546;28;20243;-79
2023/05/16 03:06:46;;;;;;;37.97;34.07;;;14.70;99.90;;;;;;10443398;28;20224;-80
2023/05/16 03:11:48;;;;;;;42.27;32.30;;;14.70;99.90;;;;;;10473462;28;20205;-79
2023/05/16 03:16:52;;;;;;;38.80;34.53;;;14.70;99.90;;;;;;10449293;28;20305;-78
2023/05/16 03:21:54;;;;;;;39.60;34.63;;;14.70;99.90;;;;;;10432970;28;20209;-79
2023/05/16 03:26:56;;;;;;;38.40;34.37;;;14.60;99.90;;;;;;10467450;28;20230;-79
2023/05/16 03:31:59;;;;;;;40.33;34.83;;;14.60;99.90;;;;;;10450274;28;20304;-80
2023/05/16 03:37:01;;;;;;;40.90;36.33;;;14.50;99.90;;;;;;10460333;28;20217;-78
2023/05/16 03:42:04;;;;;;;42.27;36.70;;;14.50;99.90;;;;;;10477383;28;20267;-81
2023/05/16 03:47:08;;;;;;;43.63;37.23;;;14.40;99.90;;;;;;10468685;28;20217;-81
2023/05/16 03:52:10;;;;;;;39.63;35.40;;;14.40;99.90;;;;;;10462905;28;20218;-81
2023/05/16 03:57:12;;;;;;;40.93;36.03;;;14.40;99.90;;;;;;10454899;28;20219;-81
2023/05/16 04:02:15;;;;;;;42.37;37.87;;;14.40;99.90;;;;;;10467340;28;20225;-81
2023/05/16 04:07:18;;;;;;;42.33;36.07;;;14.40;99.90;;;;;;10464859;28;20198;-80
2023/05/16 04:12:20;;;;;;;49.77;42.73;;;14.40;99.90;;;;;;10445059;28;20221;-80
2023/05/16 04:17:23;;;;;;;47.07;39.07;;;14.40;99.90;;;;;;10468461;28;20257;-81
2023/05/16 04:22:26;;;;;;;41.33;36.60;;;14.40;99.90;;;;;;10461336;28;20220;-81
2023/05/16 04:27:29;;;;;;;47.10;38.97;;;14.40;99.90;;;;;;10467595;28;20248;-81
2023/05/16 04:32:34;;;;;;;45.77;38.40;;;14.50;99.90;;;;;;10473132;28;20304;-82
2023/05/16 04:37:36;;;;;;;44.67;38.17;;;14.50;99.90;;;;;;10450073;28;20217;-79
2023/05/16 04:42:38;;;;;;;44.70;37.70;;;14.60;99.90;;;;;;10455178;28;20226;-81
2023/05/16 04:47:44;;;;;;;44.40;38.53;;;14.60;99.90;;;;;;10437937;28;20543;-81
2023/05/16 04:52:46;;;;;;;48.83;38.93;;;14.70;99.90;;;;;;10459273;28;20224;-81
2023/05/16 04:57:48;;;;;;;41.20;35.80;;;14.80;99.90;;;;;;10442591;28;20209;-82
2023/05/16 05:02:54;;;;;;;44.27;37.57;;;14.80;99.90;;;;;;10466323;28;20213;-81
2023/05/16 05:07:59;;;;;;;45.07;39.20;;;14.80;99.90;;;;;;10485497;28;20229;-81
2023/05/16 05:13:01;;;;;;;47.97;39.30;;;14.90;99.90;;;;;;10445445;28;20225;-82
2023/05/16 05:18:04;;;;;;;43.80;36.10;;;14.90;99.90;;;;;;10454949;28;20221;-81
2023/05/16 05:23:07;;;;;;;45.90;38.80;;;14.90;99.90;;;;;;10461774;28;20267;-81
2023/05/16 05:28:09;;;;;;;47.80;38.33;;;14.90;99.90;;;;;;10469090;28;20197;-81
2023/05/16 05:33:16;;;;;;;43.00;35.50;;;15.00;99.90;;;;;;10454088;28;20225;-82
2023/05/16 05:38:18;;;;;;;46.00;37.17;;;15.00;99.90;;;;;;10446307;28;20621;-81
2023/05/16 05:43:20;;;;;;;45.50;38.30;;;15.00;99.90;;;;;;10445341;28;20300;-82
2023/05/16 05:48:24;;;;;;;40.50;35.37;;;15.00;99.90;;;;;;10462348;28;20207;-81
2023/05/16 05:53:26;;;;;;;41.80;35.50;;;15.00;99.90;;;;;;10456545;28;20253;-80
2023/05/16 05:58:28;;;;;;;43.00;35.07;;;15.00;99.90;;;;;;10458544;28;20213;-80
2023/05/16 06:03:31;;;;;;;40.00;35.23;;;15.00;99.90;;;;;;10442711;28;20217;-80
2023/05/16 06:08:33;;;;;;;38.40;32.97;;;15.00;99.90;;;;;;10487699;28;20198;-81
2023/05/16 06:13:35;;;;;;;37.80;33.50;;;15.00;99.90;;;;;;10445850;28;20213;-81
2023/05/16 06:18:39;;;;;;;40.43;35.97;;;15.10;99.90;;;;;;10439860;28;20574;-81
2023/05/16 06:23:44;;;;;;;39.70;35.40;;;15.10;99.90;;;;;;10480832;28;20536;-80
2023/05/16 06:28:46;;;;;;;36.57;31.03;;;15.10;99.90;;;;;;10495407;28;20898;-79
2023/05/16 06:33:49;;;;;;;35.20;31.47;;;15.10;99.90;;;;;;10448736;28;20550;-79
2023/05/16 06:38:51;;;;;;;35.53;30.80;;;15.10;99.90;;;;;;10448802;28;20221;-80
2023/05/16 06:43:53;;;;;;;36.27;32.37;;;15.10;99.90;;;;;;10447803;28;20229;-80
2023/05/16 06:48:57;;;;;;;32.30;28.57;;;15.10;99.90;;;;;;10443892;28;20210;-80
2023/05/16 06:53:59;;;;;;;34.23;30.30;;;15.10;99.90;;;;;;10485284;28;20288;-80
2023/05/16 06:59:01;;;;;;;37.13;30.80;;;15.10;99.90;;;;;;10448247;28;20296;-81
2023/05/16 07:04:05;;;;;;;34.70;31.00;;;15.10;99.90;;;;;;10451336;28;20646;-81
2023/05/16 07:09:07;;;;;;;33.90;30.30;;;15.20;99.90;;;;;;10486697;28;20270;-82
2023/05/16 07:14:09;;;;;;;29.80;26.67;;;15.20;99.90;;;;;;10454451;28;20255;-82
2023/05/16 07:19:13;;;;;;;29.37;26.23;;;15.20;99.90;;;;;;10471589;28;20290;-81
2023/05/16 07:24:15;;;;;;;26.40;23.70;;;15.20;99.90;;;;;;10471045;28;20939;-82
2023/05/16 07:29:17;;;;;;;27.93;24.87;;;15.10;99.90;;;;;;10469480;28;20226;-82
2023/05/16 07:34:20;;;;;;;20.97;18.77;;;15.10;99.90;;;;;;10473659;28;20205;-80
2023/05/16 07:39:22;;;;;;;19.63;17.70;;;15.20;99.90;;;;;;10465109;28;20275;-80
2023/05/16 07:44:24;;;;;;;17.90;16.10;;;15.10;99.90;;;;;;10473346;28;20209;-81
2023/05/16 07:49:28;;;;;;;16.40;14.90;;;15.20;99.90;;;;;;10491108;28;20217;-83
2023/05/16 07:54:32;;;;;;;13.60;12.40;;;15.30;99.90;;;;;;10490485;28;20193;-82
2023/05/16 07:59:34;;;;;;;12.90;11.70;;;15.40;99.90;;;;;;10405244;28;20716;-82
2023/05/16 08:04:37;;;;;;;12.20;11.20;;;15.40;99.90;;;;;;10467551;28;20201;-82
2023/05/16 08:09:40;;;;;;;14.97;13.60;;;15.40;99.90;;;;;;10470500;28;20550;-82
2023/05/16 08:14:42;;;;;;;13.23;12.13;;;15.50;99.90;;;;;;10453838;28;20399;-79
2023/05/16 08:19:45;;;;;;;14.00;12.80;;;15.60;99.90;;;;;;10496318;28;20237;-81
2023/05/16 08:24:47;;;;;;;13.80;12.47;;;15.60;99.90;;;;;;10522783;28;20192;-80
2023/05/16 08:29:49;;;;;;;16.50;14.87;;;15.50;99.90;;;;;;10463725;28;20732;-80
2023/05/16 08:34:53;;;;;;;14.87;13.57;;;15.50;99.90;;;;;;10477212;28;20189;-79
2023/05/16 08:39:55;;;;;;;13.97;12.67;;;15.50;99.90;;;;;;10461763;28;20225;-79
2023/05/16 08:44:57;;;;;;;16.77;15.07;;;15.50;99.90;;;;;;10450534;28;20245;-78
2023/05/16 08:50:02;;;;;;;17.00;15.47;;;15.50;99.90;;;;;;10421941;28;20650;-78
2023/05/16 08:55:06;;;;;;;17.07;15.57;;;15.40;99.90;;;;;;10485327;28;20194;-80
2023/05/16 09:00:14;;;;;;;19.00;17.10;;;15.30;99.90;;;;;;10460022;28;20636;-81
2023/05/16 09:05:18;;;;;;;18.37;16.67;;;15.30;99.90;;;;;;10449231;28;20208;-79
2023/05/16 09:10:20;;;;;;;19.97;18.00;;;15.40;99.90;;;;;;10461222;28;20234;-79
2023/05/16 09:15:22;;;;;;;19.43;17.63;;;15.40;99.90;;;;;;10475122;28;20201;-79
2023/05/16 09:20:26;;;;;;;20.30;18.30;;;15.30;99.90;;;;;;10459418;28;20309;-79
2023/05/16 09:25:30;;;;;;;20.37;18.17;;;15.30;99.90;;;;;;10444042;28;20204;-79
2023/05/16 09:30:33;;;;;;;20.03;18.03;;;15.40;99.90;;;;;;10493306;28;20209;-78
2023/05/16 09:35:37;;;;;;;20.37;18.47;;;15.30;99.90;;;;;;10491194;28;20198;-79
2023/05/16 09:40:41;;;;;;;21.37;19.10;;;15.30;99.90;;;;;;10457304;22;20320;-80
2023/05/16 09:45:46;;;;;;;22.77;20.37;;;15.30;99.90;;;;;;10440063;28;20198;-83
2023/05/16 09:50:52;;;;;;;25.30;22.70;;;15.40;99.90;;;;;;10465330;28;20217;-83
2023/05/16 09:56:00;;;;;;;24.47;21.97;;;15.60;99.90;;;;;;10473271;28;20288;-80
2023/05/16 10:01:03;;;;;;;20.60;18.60;;;16.30;99.90;;;;;;10425005;28;20244;-81
2023/05/16 10:06:08;;;;;;;20.50;18.50;;;17.20;99.90;;;;;;10430682;28;20281;-80
2023/05/16 10:11:10;;;;;;;21.23;19.10;;;17.40;99.90;;;;;;10448014;28;20229;-81
2023/05/16 10:16:14;;;;;;;21.33;19.33;;;17.20;99.90;;;;;;10445658;28;20205;-80
2023/05/16 10:21:21;;;;;;;20.90;18.87;;;16.90;99.90;;;;;;10463968;28;20263;-81
2023/05/16 10:26:24;;;;;;;20.53;18.53;;;16.70;99.90;;;;;;10468083;28;20189;-81
2023/05/16 10:31:26;;;;;;;20.97;18.10;;;16.70;99.90;;;;;;10434087;28;20586;-81
2023/05/16 10:36:31;;;;;;;21.33;19.23;;;16.80;99.90;;;;;;10479862;28;20308;-81
2023/05/16 10:41:34;;;;;;;19.27;17.40;;;17.00;99.90;;;;;;10434346;28;20226;-82
2023/05/16 10:46:38;;;;;;;17.00;15.33;;;17.10;99.90;;;;;;10465064;28;20649;-82
2023/05/16 10:51:41;;;;;;;18.43;16.63;;;17.20;99.90;;;;;;10473514;28;20704;-81
2023/05/16 10:56:44;;;;;;;18.40;16.27;;;17.20;99.90;;;;;;10482256;28;20278;-82
2023/05/16 11:01:52;;;;;;;19.20;17.30;;;17.10;99.90;;;;;;10452475;28;20305;-82
2023/05/16 11:06:58;;;;;;;19.33;17.37;;;17.00;99.90;;;;;;10452542;28;20198;-81
2023/05/16 11:12:02;;;;;;;18.57;16.77;;;16.80;99.90;;;;;;10485022;28;20670;-82
2023/05/16 11:17:08;;;;;;;18.10;16.27;;;16.50;99.90;;;;;;10486576;28;20304;-82
2023/05/16 11:22:25;;;;;;;19.07;17.17;;;16.20;99.90;;;;;;10439995;28;20264;-82
2023/05/16 11:27:29;;;;;;;23.03;20.47;;;15.90;99.90;;;;;;10471726;28;20190;-82
2023/05/16 11:32:34;;;;;;;20.23;17.70;;;15.50;99.90;;;;;;10500620;28;20206;-82
2023/05/16 11:37:38;;;;;;;16.90;15.27;;;15.20;99.90;;;;;;10470740;28;20216;-82
2023/05/16 11:42:41;;;;;;;16.80;15.20;;;14.90;99.90;;;;;;10442016;28;20221;-82
2023/05/16 11:47:46;;;;;;;14.50;13.10;;;14.70;99.90;;;;;;10435644;28;20186;-82
2023/05/16 11:52:52;;;;;;;15.80;14.40;;;14.50;99.90;;;;;;10473967;28;20646;-82
2023/05/16 11:57:54;;;;;;;16.57;14.93;;;14.40;99.90;;;;;;10480963;28;20311;-81
2023/05/16 12:03:03;;;;;;;15.80;14.30;;;14.40;99.90;;;;;;10455879;28;20214;-82
2023/05/16 12:08:06;;;;;;;15.93;14.30;;;14.30;99.90;;;;;;10499496;28;20189;-82
2023/05/16 12:13:09;;;;;;;17.43;15.70;;;14.20;99.90;;;;;;10464174;28;20245;-82
2023/05/16 12:18:12;;;;;;;16.73;15.13;;;14.20;99.90;;;;;;10456116;28;20301;-81
2023/05/16 12:23:16;;;;;;;14.10;12.80;;;14.10;99.90;;;;;;10469711;28;20218;-81
2023/05/16 12:28:18;;;;;;;15.73;14.27;;;14.10;99.90;;;;;;10476257;28;20189;-81
2023/05/16 12:33:20;;;;;;;13.07;11.87;;;14.00;99.90;;;;;;10449809;28;20209;-82
2023/05/16 12:38:25;;;;;;;10.47;9.47;;;14.10;99.90;;;;;;10495284;28;20642;-81
2023/05/16 12:43:27;;;;;;;9.60;8.80;;;14.20;99.90;;;;;;10439075;28;20676;-81
2023/05/16 12:48:33;;;;;;;7.47;6.70;;;14.30;99.90;;;;;;10445172;28;20665;-81
2023/05/16 12:53:42;;;;;;;8.07;7.37;;;14.40;99.90;;;;;;10461526;28;20222;-81
2023/05/16 12:58:44;;;;;;;8.13;7.53;;;14.40;99.90;;;;;;10427628;28;20577;-81
2023/05/16 13:03:46;;;;;;;8.77;8.07;;;14.60;99.90;;;;;;10459975;28;20321;-82
2023/05/16 13:08:50;;;;;;;6.90;6.30;;;14.70;99.90;;;;;;10472993;28;20233;-81
2023/05/16 13:13:52;;;;;;;6.53;6.03;;;14.80;99.90;;;;;;10465315;28;20222;-81
2023/05/16 13:18:54;;;;;;;7.20;5.73;;;14.80;99.90;;;;;;10474099;28;20221;-82
2023/05/16 13:23:58;;;;;;;6.60;6.13;;;14.80;99.90;;;;;;10472962;28;20231;-82
2023/05/16 13:29:01;;;;;;;5.53;5.13;;;14.80;99.90;;;;;;10468738;28;20186;-82
2023/05/16 13:34:03;;;;;;;4.97;4.57;;;14.80;99.90;;;;;;10453831;28;20820;-82
2023/05/16 13:39:06;;;;;;;4.23;4.00;;;14.80;99.90;;;;;;10479058;28;20585;-82
2023/05/16 13:44:08;;;;;;;4.97;4.57;;;14.80;99.90;;;;;;10448249;28;20251;-82
2023/05/16 13:49:10;;;;;;;4.73;4.43;;;14.70;99.90;;;;;;10447768;28;20194;-82
2023/05/16 13:54:14;;;;;;;5.43;5.00;;;14.70;99.90;;;;;;10442492;28;20689;-82
2023/05/16 13:59:16;;;;;;;4.47;4.07;;;14.70;99.90;;;;;;10467378;28;20662;-82
2023/05/16 14:04:18;;;;;;;4.43;3.93;;;14.70;99.90;;;;;;10447178;28;20221;-82
2023/05/16 14:09:21;;;;;;;4.00;3.70;;;14.80;99.90;;;;;;10489693;28;20189;-82
2023/05/16 14:14:24;;;;;;;4.70;4.30;;;14.80;99.90;;;;;;10451036;28;20213;-82
2023/05/16 14:19:26;;;;;;;7.30;4.30;;;14.80;99.90;;;;;;10464228;28;20282;-82
2023/05/16 14:24:29;;;;;;;4.60;4.30;;;14.80;99.90;;;;;;10468620;28;20220;-82
2023/05/16 14:29:31;;;;;;;4.90;4.50;;;14.90;99.90;;;;;;10494571;28;20193;-82
2023/05/16 14:34:33;;;;;;;4.90;4.50;;;14.90;99.90;;;;;;10459418;28;20273;-82
2023/05/16 14:39:37;;;;;;;4.10;3.70;;;14.90;99.90;;;;;;10428108;28;20218;-82
2023/05/16 14:44:39;;;;;;;3.90;3.70;;;14.90;99.90;;;;;;10485389;28;20729;-82
2023/05/16 14:49:41;;;;;;;3.43;3.10;;;14.90;99.90;;;;;;10461005;28;20627;-82
2023/05/16 14:54:44;;;;;;;3.63;3.07;;;14.90;99.90;;;;;;10460549;28;20248;-82
2023/05/16 14:59:49;;;;;;;5.80;3.40;;;15.00;99.90;;;;;;10507820;28;20243;-83
2023/05/16 15:04:52;;;;;;;3.53;3.30;;;15.10;99.90;;;;;;10469513;28;20224;-82
2023/05/16 15:09:56;;;;;;;3.10;2.90;;;15.10;99.90;;;;;;10464776;28;20305;-82
2023/05/16 15:14:58;;;;;;;4.00;3.07;;;15.10;99.90;;;;;;10467046;28;20664;-82
2023/05/16 15:20:00;;;;;;;2.97;2.77;;;15.20;99.90;;;;;;10462066;28;20692;-82
2023/05/16 15:25:04;;;;;;;3.07;2.83;;;15.40;99.90;;;;;;10472633;28;20677;-83
2023/05/16 15:30:08;;;;;;;3.03;2.83;;;15.40;99.90;;;;;;10482582;28;20300;-82
2023/05/16 15:35:10;;;;;;;4.60;3.10;;;15.50;99.90;;;;;;10444824;28;20641;-83
2023/05/16 15:40:14;;;;;;;3.83;3.50;;;15.60;99.90;;;;;;10493936;23;20244;-80
2023/05/16 15:45:16;;;;;;;2.70;2.50;;;15.60;99.90;;;;;;10418753;28;20202;-80
2023/05/16 15:50:19;;;;;;;4.17;3.10;;;15.70;99.90;;;;;;10417580;28;20312;-80
2023/05/16 15:55:22;;;;;;;3.30;3.10;;;15.90;99.90;;;;;;10402463;28;20203;-80
2023/05/16 16:00:28;;;;;;;4.07;3.20;;;16.00;99.90;;;;;;10400424;28;20276;-79
2023/05/16 16:05:30;;;;;;;6.57;3.70;;;16.00;99.90;;;;;;10395767;28;20207;-81
2023/05/16 16:10:34;;;;;;;4.13;3.67;;;15.90;99.90;;;;;;10403677;28;20219;-80
2023/05/16 16:15:36;;;;;;;4.00;3.40;;;15.80;99.90;;;;;;10401824;28;20199;-80
2023/05/16 16:20:38;;;;;;;3.57;3.00;;;15.70;99.90;;;;;;10400865;28;20229;-80
2023/05/16 16:25:41;;;;;;;5.03;3.10;;;15.60;99.90;;;;;;10385002;28;20195;-80
2023/05/16 16:30:46;;;;;;;3.73;3.27;;;15.50;99.90;;;;;;10418586;28;20227;-80
2023/05/16 16:35:48;;;;;;;4.13;3.00;;;15.40;99.90;;;;;;10419285;28;20612;-81
2023/05/16 16:40:51;;;;;;;3.93;3.63;;;15.30;99.90;;;;;;10419780;28;20780;-80
2023/05/16 16:45:53;;;;;;;3.70;3.00;;;15.30;99.90;;;;;;10418825;28;20202;-81
2023/05/16 16:50:56;;;;;;;5.63;3.07;;;15.40;99.80;;;;;;10419194;28;20211;-80
2023/05/16 16:55:59;;;;;;;5.70;3.00;;;15.40;99.60;;;;;;10401918;28;20205;-83
2023/05/16 17:01:05;;;;;;;4.60;3.23;;;15.40;97.70;;;;;;10421043;28;20214;-81
2023/05/16 17:06:08;;;;;;;3.43;3.10;;;15.40;99.80;;;;;;10386943;28;20206;-81
2023/05/16 17:11:13;;;;;;;3.97;3.30;;;15.50;99.30;;;;;;10420379;28;20219;-80
2023/05/16 17:16:15;;;;;;;2.90;2.70;;;15.50;98.80;;;;;;10417204;28;20198;-81
2023/05/16 17:21:17;;;;;;;3.73;2.63;;;15.40;99.40;;;;;;10379311;28;20219;-80
2023/05/16 17:26:21;;;;;;;3.20;2.00;;;15.40;97.80;;;;;;10360636;28;20299;-80
2023/05/16 17:31:23;;;;;;;3.77;3.07;;;15.40;97.90;;;;;;10375117;28;20226;-80
2023/05/16 17:36:25;;;;;;;3.93;2.60;;;15.40;98.70;;;;;;10376817;28;20198;-80
2023/05/16 17:41:28;;;;;;;3.10;2.90;;;15.30;99.70;;;;;;10338919;28;20231;-80
2023/05/16 17:46:30;;;;;;;3.57;3.23;;;15.40;99.30;;;;;;10373893;28;20214;-81
2023/05/16 17:51:48;;;;;;;4.57;4.20;;;15.40;99.40;;;;;;10396314;28;20216;-79
2023/05/16 17:56:52;;;;;;;3.90;3.07;;;15.50;96.60;;;;;;10368334;28;20676;-80
2023/05/16 18:01:56;;;;;;;3.30;3.00;;;15.40;98.50;;;;;;10351847;28;20273;-81
2023/05/16 18:06:59;;;;;;;2.77;2.57;;;15.30;97.80;;;;;;10376488;28;20454;-80
2023/05/16 18:12:02;;;;;;;3.33;2.97;;;15.30;99.10;;;;;;10365833;28;20247;-80
2023/05/16 18:17:04;;;;;;;4.10;2.80;;;15.20;99.60;;;;;;10352159;28;20543;-80
2023/05/16 18:22:07;;;;;;;2.67;2.47;;;15.20;99.80;;;;;;10387248;28;20242;-80
2023/05/16 18:27:11;;;;;;;2.80;2.50;;;15.10;99.90;;;;;;10398743;28;20280;-80
2023/05/16 18:32:13;;;;;;;4.67;3.13;;;15.00;99.30;;;;;;10363607;28;20215;-80
2023/05/16 18:37:15;;;;;;;4.00;3.13;;;15.10;99.10;;;;;;10379378;28;20242;-80
2023/05/16 18:42:19;;;;;;;2.50;1.90;;;15.00;99.50;;;;;;10419555;28;20222;-80
2023/05/16 18:47:21;;;;;;;5.70;3.50;;;15.00;98.10;;;;;;10385664;28;20588;-79
2023/05/16 18:52:23;;;;;;;4.07;2.33;;;15.00;98.50;;;;;;10402389;28;20219;-80
2023/05/16 18:57:27;;;;;;;3.63;2.43;;;14.90;97.80;;;;;;10402670;28;20462;-80
2023/05/16 19:02:29;;;;;;;6.50;3.40;;;14.80;97.00;;;;;;10388105;28;20227;-79
2023/05/16 19:07:31;;;;;;;5.53;2.80;;;14.70;97.20;;;;;;10363834;28;20214;-79
2023/05/16 19:12:34;;;;;;;2.83;2.63;;;14.70;98.20;;;;;;10365933;28;20218;-80
2023/05/16 19:17:37;;;;;;;4.23;2.70;;;14.60;98.30;;;;;;10394923;28;20199;-80
2023/05/16 19:22:39;;;;;;;2.90;2.67;;;14.60;98.10;;;;;;10385036;28;20219;-80
2023/05/16 19:27:43;;;;;;;7.00;4.30;;;14.50;96.10;;;;;;10401797;28;20202;-80
2023/05/16 19:32:45;;;;;;;3.17;2.63;;;14.50;97.60;;;;;;10384677;28;20242;-79
2023/05/16 19:37:47;;;;;;;8.17;3.57;;;14.40;97.50;;;;;;10410504;28;20203;-79
2023/05/16 19:42:50;;;;;;;3.83;2.77;;;14.40;97.40;;;;;;10387401;28;20315;-80
2023/05/16 19:47:52;;;;;;;3.80;2.70;;;14.30;97.80;;;;;;10375272;28;20213;-80
2023/05/16 19:52:57;;;;;;;2.60;2.40;;;14.20;96.00;;;;;;10384825;28;20328;-79
2023/05/16 19:58:00;;;;;;;3.20;2.90;;;14.20;97.10;;;;;;10417351;28;20195;-79
2023/05/16 20:03:02;;;;;;;3.80;2.47;;;14.10;96.50;;;;;;10376482;28;20215;-79
2023/05/16 20:08:04;;;;;;;3.20;2.37;;;14.00;97.20;;;;;;10370975;28;20696;-79
2023/05/16 20:13:08;;;;;;;3.07;2.50;;;14.00;98.10;;;;;;10364218;28;20254;-79
2023/05/16 20:18:10;;;;;;;2.97;2.70;;;13.90;97.80;;;;;;10377120;28;20211;-79
2023/05/16 20:23:12;;;;;;;7.83;3.07;;;13.90;97.10;;;;;;10394825;28;20229;-79
2023/05/16 20:28:15;;;;;;;3.23;2.30;;;13.80;97.20;;;;;;10397618;28;20193;-80
2023/05/16 20:33:17;;;;;;;8.23;3.67;;;13.80;97.20;;;;;;10417231;28;20222;-79
2023/05/16 20:38:20;;;;;;;7.40;3.20;;;13.80;96.70;;;;;;10414440;28;20674;-79
2023/05/16 20:43:23;;;;;;;2.50;2.00;;;13.80;97.90;;;;;;10416549;28;20260;-81
2023/05/16 20:48:25;;;;;;;8.03;5.97;;;13.80;96.50;;;;;;10413536;28;20191;-79
2023/05/16 20:53:27;;;;;;;6.13;2.60;;;13.80;97.80;;;;;;10415794;28;20223;-80
2023/05/16 20:58:30;;;;;;;2.20;2.10;;;13.80;96.70;;;;;;10398431;28;20203;-79
2023/05/16 21:03:33;;;;;;;5.27;2.57;;;13.80;97.20;;;;;;10399802;28;20269;-79
2023/05/16 21:08:35;;;;;;;4.50;3.00;;;13.80;96.80;;;;;;10393178;28;20223;-81
2023/05/16 21:13:38;;;;;;;3.17;2.80;;;13.80;96.60;;;;;;10415076;28;20256;-79
2023/05/16 21:18:41;;;;;;;2.27;2.07;;;13.80;96.70;;;;;;10415942;28;20266;-78
2023/05/16 21:23:43;;;;;;;5.00;2.50;;;13.70;95.70;;;;;;10376675;28;20219;-79
2023/05/16 21:28:46;;;;;;;2.97;2.63;;;13.70;94.30;;;;;;10325132;28;20278;-79
2023/05/16 21:33:50;;;;;;;2.20;1.87;;;13.60;95.40;;;;;;10343165;28;20302;-79
2023/05/16 21:38:52;;;;;;;3.03;2.20;;;13.60;96.00;;;;;;10318340;28;20227;-78
2023/05/16 21:43:59;;;;;;;4.93;2.20;;;13.60;95.40;;;;;;10414236;23;20285;-89
2023/05/16 21:49:01;;;;;;;2.27;2.13;;;13.50;96.20;;;;;;10419194;28;20194;-87
2023/05/16 21:54:05;;;;;;;2.40;2.10;;;13.50;95.80;;;;;;10468564;28;20211;-87
2023/05/16 21:59:08;;;;;;;2.77;2.30;;;13.50;96.70;;;;;;10479626;28;20194;-85
2023/05/16 22:04:11;;;;;;;3.70;2.40;;;13.40;95.70;;;;;;10482557;28;20241;-84
2023/05/16 22:09:13;;;;;;;6.00;2.10;;;13.40;96.10;;;;;;10498264;28;20235;-85
2023/05/16 22:14:16;;;;;;;2.57;2.37;;;13.30;95.80;;;;;;10465766;28;20263;-85
2023/05/16 22:19:18;;;;;;;4.10;2.37;;;13.20;96.80;;;;;;10465042;28;20267;-85
2023/05/16 22:24:21;;;;;;;2.90;2.40;;;13.10;95.90;;;;;;10455530;28;20665;-85
2023/05/16 22:29:24;;;;;;;2.00;1.90;;;13.00;95.00;;;;;;10485747;28;20190;-84
2023/05/16 22:34:26;;;;;;;3.43;2.53;;;12.90;96.20;;;;;;10441910;28;20248;-85
2023/05/16 22:39:28;;;;;;;4.07;2.07;;;12.80;95.50;;;;;;10467078;28;20216;-85
2023/05/16 22:44:32;;;;;;;3.00;2.70;;;12.70;96.60;;;;;;10488089;28;20288;-85
2023/05/16 22:49:34;;;;;;;3.93;2.30;;;12.60;96.50;;;;;;10493011;28;20254;-85
2023/05/16 22:54:36;;;;;;;2.73;2.50;;;12.50;97.00;;;;;;10480970;28;20639;-85
2023/05/16 22:59:39;;;;;;;2.40;2.00;;;12.40;97.00;;;;;;10510488;28;20308;-85
2023/05/16 23:04:42;;;;;;;3.80;2.47;;;12.30;97.10;;;;;;10435000;28;20224;-85
2023/05/16 23:09:44;;;;;;;4.47;1.90;;;12.20;96.60;;;;;;10496598;28;20197;-85
2023/05/16 23:14:48;;;;;;;2.30;2.10;;;12.00;96.10;;;;;;10511844;28;20403;-85
2023/05/16 23:19:52;;;;;;;3.20;2.60;;;11.90;97.30;;;;;;10478212;28;20206;-85
2023/05/16 23:24:56;;;;;;;2.83;2.30;;;11.90;96.50;;;;;;10503750;28;20224;-85
2023/05/16 23:30:00;;;;;;;4.00;2.37;;;11.80;97.20;;;;;;10501406;28;20223;-85
2023/05/16 23:35:02;;;;;;;5.70;2.40;;;11.70;96.90;;;;;;10479397;28;20221;-85
2023/05/16 23:40:05;;;;;;;2.70;2.50;;;11.60;97.20;;;;;;10499342;28;20214;-85
2023/05/16 23:45:21;;;;;;;2.53;2.33;;;11.50;95.90;;;;;;10435534;28;20241;-85
2023/05/16 23:50:23;;;;;;;3.07;2.80;;;11.50;96.90;;;;;;10457426;28;20205;-85
2023/05/16 23:55:25;;;;;;;3.17;2.27;;;11.40;96.20;;;;;;10453491;28;20273;-87
